sensor_id;sensor_type;location;lat;lon;timestamp;P1;durP1;ratioP1;P2;durP2;ratioP2
16115;SDS011;8162;47.104;15.432;2024-01-10T00:00:11;9.73;;;6.67;;
16115;SDS011;8162;47.104;15.432;2024-01-10T00:03:12;9.37;;;6.00;;
16115;SDS011;8162;47.104;15.432;2024-01-10T00:06:13;10.57;;;5.50;;
16115;SDS011;8162;47.104;15.432;2024-01-10T00:09:15;8.73;;;5.27;;
16115;SDS011;8162;47.104;15.432;2024-01-10T00:12:16;9.47;;;6.03;;
16115;SDS011;8162;47.104;15.432;2024-01-10T00:15:17;8.23;;;5.70;;
16115;SDS011;8162;47.104;15.432;2024-01-10T00:18:17;11.13;;;5.20;;
16115;SDS011;8162;47.104;15.432;2024-01-10T00:21:19;8.07;;;5.27;;
16115;SDS011;8162;47.104;15.432;2024-01-10T00:24:20;8.80;;;5.20;;
16115;SDS011;8162;47.104;15.432;2024-01-10T00:27:21;9.67;;;6.50;;
16115;SDS011;8162;47.104;15.432;2024-01-10T00:30:22;7.50;;;5.70;;
16115;SDS011;8162;47.104;15.432;2024-01-10T00:33:23;9.33;;;6.03;;
16115;SDS011;8162;47.104;15.432;2024-01-10T00:36:24;8.37;;;5.03;;
16115;SDS011;8162;47.104;15.432;2024-01-10T00:39:25;7.77;;;5.23;;
16115;SDS011;8162;47.104;15.432;2024-01-10T00:42:26;8.30;;;5.20;;
16115;SDS011;8162;47.104;15.432;2024-01-10T00:45:27;9.67;;;5.83;;
16115;SDS011;8162;47.104;15.432;2024-01-10T00:48:28;10.80;;;6.10;;
16115;SDS011;8162;47.104;15.432;2024-01-10T00:51:30;8.97;;;6.17;;
16115;SDS011;8162;47.104;15.432;2024-01-10T00:54:31;10.47;;;6.60;;
16115;SDS011;8162;47.104;15.432;2024-01-10T00:57:32;9.43;;;5.57;;
16115;SDS011;8162;47.104;15.432;2024-01-10T01:00:34;7.77;;;5.37;;
16115;SDS011;8162;47.104;15.432;2024-01-10T01:03:35;10.20;;;5.87;;
16115;SDS011;8162;47.104;15.432;2024-01-10T01:06:36;10.97;;;5.63;;
16115;SDS011;8162;47.104;15.432;2024-01-10T01:09:38;10.40;;;5.43;;
16115;SDS011;8162;47.104;15.432;2024-01-10T01:12:39;12.43;;;6.03;;
16115;SDS011;8162;47.104;15.432;2024-01-10T01:15:40;10.70;;;5.83;;
16115;SDS011;8162;47.104;15.432;2024-01-10T01:18:41;10.40;;;6.30;;
16115;SDS011;8162;47.104;15.432;2024-01-10T01:21:45;13.80;;;6.10;;
16115;SDS011;8162;47.104;15.432;2024-01-10T01:24:46;9.73;;;6.13;;
16115;SDS011;8162;47.104;15.432;2024-01-10T01:27:47;10.10;;;5.80;;
16115;SDS011;8162;47.104;15.432;2024-01-10T01:30:48;11.77;;;6.30;;
16115;SDS011;8162;47.104;15.432;2024-01-10T01:33:49;13.17;;;6.27;;
16115;SDS011;8162;47.104;15.432;2024-01-10T01:36:49;10.17;;;6.57;;
16115;SDS011;8162;47.104;15.432;2024-01-10T01:39:51;13.00;;;6.27;;
16115;SDS011;8162;47.104;15.432;2024-01-10T01:42:53;10.17;;;5.90;;
16115;SDS011;8162;47.104;15.432;2024-01-10T01:45:55;10.77;;;6.07;;
16115;SDS011;8162;47.104;15.432;2024-01-10T01:48:56;7.93;;;5.57;;
16115;SDS011;8162;47.104;15.432;2024-01-10T01:51:58;11.30;;;6.17;;
16115;SDS011;8162;47.104;15.432;2024-01-10T01:55:00;11.03;;;6.43;;
16115;SDS011;8162;47.104;15.432;2024-01-10T01:58:02;11.67;;;6.60;;
16115;SDS011;8162;47.104;15.432;2024-01-10T02:01:03;12.40;;;6.63;;
16115;SDS011;8162;47.104;15.432;2024-01-10T02:04:05;10.70;;;6.53;;
16115;SDS011;8162;47.104;15.432;2024-01-10T02:07:05;11.17;;;6.60;;
16115;SDS011;8162;47.104;15.432;2024-01-10T02:10:06;11.47;;;6.30;;
16115;SDS011;8162;47.104;15.432;2024-01-10T02:13:07;11.13;;;6.43;;
16115;SDS011;8162;47.104;15.432;2024-01-10T02:16:09;10.70;;;6.33;;
16115;SDS011;8162;47.104;15.432;2024-01-10T02:19:21;11.37;;;6.13;;
16115;SDS011;8162;47.104;15.432;2024-01-10T02:22:22;9.30;;;6.27;;
16115;SDS011;8162;47.104;15.432;2024-01-10T02:25:23;10.87;;;6.07;;
16115;SDS011;8162;47.104;15.432;2024-01-10T02:28:24;10.03;;;6.23;;
16115;SDS011;8162;47.104;15.432;2024-01-10T02:31:24;14.83;;;6.13;;
16115;SDS011;8162;47.104;15.432;2024-01-10T02:34:29;11.57;;;6.80;;
16115;SDS011;8162;47.104;15.432;2024-01-10T02:37:30;9.67;;;6.30;;
16115;SDS011;8162;47.104;15.432;2024-01-10T02:40:31;11.37;;;6.67;;
16115;SDS011;8162;47.104;15.432;2024-01-10T02:43:31;9.07;;;5.80;;
16115;SDS011;8162;47.104;15.432;2024-01-10T02:46:32;10.40;;;6.07;;
16115;SDS011;8162;47.104;15.432;2024-01-10T02:49:33;10.33;;;5.47;;
16115;SDS011;8162;47.104;15.432;2024-01-10T02:52:34;9.93;;;6.20;;
16115;SDS011;8162;47.104;15.432;2024-01-10T02:55:34;10.30;;;5.70;;
16115;SDS011;8162;47.104;15.432;2024-01-10T02:58:35;11.07;;;6.53;;
16115;SDS011;8162;47.104;15.432;2024-01-10T03:01:36;10.87;;;5.77;;
16115;SDS011;8162;47.104;15.432;2024-01-10T03:04:37;10.43;;;5.83;;
16115;SDS011;8162;47.104;15.432;2024-01-10T03:07:38;11.10;;;6.30;;
16115;SDS011;8162;47.104;15.432;2024-01-10T03:10:39;11.90;;;6.73;;
16115;SDS011;8162;47.104;15.432;2024-01-10T03:13:40;8.47;;;5.77;;
16115;SDS011;8162;47.104;15.432;2024-01-10T03:16:40;9.00;;;5.43;;
16115;SDS011;8162;47.104;15.432;2024-01-10T03:19:41;11.63;;;6.40;;
16115;SDS011;8162;47.104;15.432;2024-01-10T03:22:45;10.10;;;5.60;;
16115;SDS011;8162;47.104;15.432;2024-01-10T03:25:45;9.47;;;5.80;;
16115;SDS011;8162;47.104;15.432;2024-01-10T03:28:46;9.80;;;6.20;;
16115;SDS011;8162;47.104;15.432;2024-01-10T03:31:47;9.93;;;6.17;;
16115;SDS011;8162;47.104;15.432;2024-01-10T03:34:48;10.27;;;5.70;;
16115;SDS011;8162;47.104;15.432;2024-01-10T03:37:51;9.37;;;5.50;;
16115;SDS011;8162;47.104;15.432;2024-01-10T03:40:52;12.27;;;6.00;;
16115;SDS011;8162;47.104;15.432;2024-01-10T03:43:53;10.60;;;6.00;;
16115;SDS011;8162;47.104;15.432;2024-01-10T03:46:54;8.27;;;6.07;;
16115;SDS011;8162;47.104;15.432;2024-01-10T03:49:55;10.47;;;5.60;;
16115;SDS011;8162;47.104;15.432;2024-01-10T03:52:56;10.13;;;5.90;;
16115;SDS011;8162;47.104;15.432;2024-01-10T03:55:57;8.93;;;5.73;;
16115;SDS011;8162;47.104;15.432;2024-01-10T03:58:58;8.93;;;5.73;;
16115;SDS011;8162;47.104;15.432;2024-01-10T04:02:01;11.20;;;6.20;;
16115;SDS011;8162;47.104;15.432;2024-01-10T04:05:05;8.33;;;6.00;;
16115;SDS011;8162;47.104;15.432;2024-01-10T04:08:07;10.57;;;6.07;;
16115;SDS011;8162;47.104;15.432;2024-01-10T04:11:08;11.37;;;5.93;;
16115;SDS011;8162;47.104;15.432;2024-01-10T04:14:09;9.57;;;5.63;;
16115;SDS011;8162;47.104;15.432;2024-01-10T04:17:09;12.00;;;6.83;;
16115;SDS011;8162;47.104;15.432;2024-01-10T04:20:10;9.93;;;6.13;;
16115;SDS011;8162;47.104;15.432;2024-01-10T04:23:11;11.63;;;5.77;;
16115;SDS011;8162;47.104;15.432;2024-01-10T04:26:12;10.73;;;6.40;;
16115;SDS011;8162;47.104;15.432;2024-01-10T04:29:12;11.23;;;6.63;;
16115;SDS011;8162;47.104;15.432;2024-01-10T04:32:13;9.63;;;6.07;;
16115;SDS011;8162;47.104;15.432;2024-01-10T04:35:14;9.27;;;5.60;;
16115;SDS011;8162;47.104;15.432;2024-01-10T04:38:15;9.40;;;5.83;;
16115;SDS011;8162;47.104;15.432;2024-01-10T04:41:15;8.73;;;5.87;;
16115;SDS011;8162;47.104;15.432;2024-01-10T04:44:16;9.40;;;5.93;;
16115;SDS011;8162;47.104;15.432;2024-01-10T04:47:18;8.23;;;5.43;;
16115;SDS011;8162;47.104;15.432;2024-01-10T04:50:19;11.07;;;6.30;;
16115;SDS011;8162;47.104;15.432;2024-01-10T04:53:19;12.43;;;6.77;;
16115;SDS011;8162;47.104;15.432;2024-01-10T04:56:20;9.70;;;6.07;;
16115;SDS011;8162;47.104;15.432;2024-01-10T04:59:21;11.07;;;6.43;;
16115;SDS011;8162;47.104;15.432;2024-01-10T05:02:21;11.77;;;6.63;;
16115;SDS011;8162;47.104;15.432;2024-01-10T05:05:22;12.17;;;6.53;;
16115;SDS011;8162;47.104;15.432;2024-01-10T05:08:24;9.73;;;6.37;;
16115;SDS011;8162;47.104;15.432;2024-01-10T05:11:26;12.47;;;6.23;;
16115;SDS011;8162;47.104;15.432;2024-01-10T05:14:27;12.10;;;6.57;;
16115;SDS011;8162;47.104;15.432;2024-01-10T05:17:28;9.40;;;6.13;;
16115;SDS011;8162;47.104;15.432;2024-01-10T05:20:29;10.70;;;6.00;;
16115;SDS011;8162;47.104;15.432;2024-01-10T05:23:30;11.37;;;5.90;;
16115;SDS011;8162;47.104;15.432;2024-01-10T05:26:31;10.23;;;6.27;;
16115;SDS011;8162;47.104;15.432;2024-01-10T05:29:32;11.67;;;6.83;;
16115;SDS011;8162;47.104;15.432;2024-01-10T05:32:32;12.43;;;6.70;;
16115;SDS011;8162;47.104;15.432;2024-01-10T05:35:33;11.20;;;6.00;;
16115;SDS011;8162;47.104;15.432;2024-01-10T05:38:35;8.67;;;5.83;;
16115;SDS011;8162;47.104;15.432;2024-01-10T05:41:36;8.90;;;6.03;;
16115;SDS011;8162;47.104;15.432;2024-01-10T05:44:37;10.73;;;5.67;;
16115;SDS011;8162;47.104;15.432;2024-01-10T05:51:00;8.80;;;6.70;;
16115;SDS011;8162;47.104;15.432;2024-01-10T05:54:01;7.80;;;5.83;;
16115;SDS011;8162;47.104;15.432;2024-01-10T05:57:02;11.20;;;7.30;;
16115;SDS011;8162;47.104;15.432;2024-01-10T06:00:03;13.20;;;7.40;;
16115;SDS011;8162;47.104;15.432;2024-01-10T06:03:09;12.73;;;6.63;;
16115;SDS011;8162;47.104;15.432;2024-01-10T06:06:10;15.80;;;7.20;;
16115;SDS011;8162;47.104;15.432;2024-01-10T06:09:10;13.43;;;6.70;;
16115;SDS011;8162;47.104;15.432;2024-01-10T06:12:11;11.50;;;6.23;;
16115;SDS011;8162;47.104;15.432;2024-01-10T06:15:12;10.90;;;7.00;;
16115;SDS011;8162;47.104;15.432;2024-01-10T06:18:13;10.20;;;5.73;;
16115;SDS011;8162;47.104;15.432;2024-01-10T06:21:13;9.03;;;6.43;;
16115;SDS011;8162;47.104;15.432;2024-01-10T06:24:14;11.83;;;6.70;;
16115;SDS011;8162;47.104;15.432;2024-01-10T06:27:15;10.77;;;6.63;;
16115;SDS011;8162;47.104;15.432;2024-01-10T06:30:16;10.53;;;5.63;;
16115;SDS011;8162;47.104;15.432;2024-01-10T06:33:16;10.37;;;6.40;;
16115;SDS011;8162;47.104;15.432;2024-01-10T06:36:17;11.10;;;6.27;;
16115;SDS011;8162;47.104;15.432;2024-01-10T06:39:18;10.87;;;6.27;;
16115;SDS011;8162;47.104;15.432;2024-01-10T06:42:19;10.60;;;6.60;;
16115;SDS011;8162;47.104;15.432;2024-01-10T06:45:20;10.60;;;6.87;;
16115;SDS011;8162;47.104;15.432;2024-01-10T06:48:21;9.37;;;6.30;;
16115;SDS011;8162;47.104;15.432;2024-01-10T06:51:21;8.37;;;6.03;;
16115;SDS011;8162;47.104;15.432;2024-01-10T06:54:22;11.33;;;7.03;;
16115;SDS011;8162;47.104;15.432;2024-01-10T06:57:23;9.53;;;6.53;;
16115;SDS011;8162;47.104;15.432;2024-01-10T07:00:24;12.87;;;7.30;;
16115;SDS011;8162;47.104;15.432;2024-01-10T07:03:24;10.33;;;5.97;;
16115;SDS011;8162;47.104;15.432;2024-01-10T07:06:25;12.47;;;7.60;;
16115;SDS011;8162;47.104;15.432;2024-01-10T07:09:26;10.03;;;7.13;;
16115;SDS011;8162;47.104;15.432;2024-01-10T07:12:27;12.73;;;7.43;;
16115;SDS011;8162;47.104;15.432;2024-01-10T07:15:27;11.57;;;6.83;;
16115;SDS011;8162;47.104;15.432;2024-01-10T07:18:28;11.73;;;6.97;;
16115;SDS011;8162;47.104;15.432;2024-01-10T07:21:30;12.13;;;7.53;;
16115;SDS011;8162;47.104;15.432;2024-01-10T07:24:31;11.70;;;7.17;;
16115;SDS011;8162;47.104;15.432;2024-01-10T07:27:31;11.33;;;7.10;;
16115;SDS011;8162;47.104;15.432;2024-01-10T07:30:32;13.00;;;6.97;;
16115;SDS011;8162;47.104;15.432;2024-01-10T07:33:33;13.30;;;6.77;;
16115;SDS011;8162;47.104;15.432;2024-01-10T07:36:33;12.70;;;7.33;;
16115;SDS011;8162;47.104;15.432;2024-01-10T07:39:42;11.70;;;7.40;;
16115;SDS011;8162;47.104;15.432;2024-01-10T07:42:43;11.33;;;7.10;;
16115;SDS011;8162;47.104;15.432;2024-01-10T07:45:44;11.13;;;7.33;;
16115;SDS011;8162;47.104;15.432;2024-01-10T07:48:45;14.50;;;8.40;;
16115;SDS011;8162;47.104;15.432;2024-01-10T07:51:45;11.53;;;7.30;;
16115;SDS011;8162;47.104;15.432;2024-01-10T07:54:46;13.10;;;7.47;;
16115;SDS011;8162;47.104;15.432;2024-01-10T07:57:48;12.47;;;7.27;;
16115;SDS011;8162;47.104;15.432;2024-01-10T08:00:49;15.47;;;7.10;;
16115;SDS011;8162;47.104;15.432;2024-01-10T08:03:50;12.13;;;7.47;;
16115;SDS011;8162;47.104;15.432;2024-01-10T08:06:50;13.53;;;7.57;;
16115;SDS011;8162;47.104;15.432;2024-01-10T08:09:51;16.00;;;7.40;;
16115;SDS011;8162;47.104;15.432;2024-01-10T08:12:52;14.77;;;7.60;;
16115;SDS011;8162;47.104;15.432;2024-01-10T08:15:52;15.97;;;8.50;;
16115;SDS011;8162;47.104;15.432;2024-01-10T08:18:54;17.50;;;8.23;;
16115;SDS011;8162;47.104;15.432;2024-01-10T08:21:55;11.80;;;7.77;;
16115;SDS011;8162;47.104;15.432;2024-01-10T08:24:56;12.40;;;7.57;;
16115;SDS011;8162;47.104;15.432;2024-01-10T08:27:57;12.93;;;7.83;;
16115;SDS011;8162;47.104;15.432;2024-01-10T08:30:58;14.00;;;8.00;;
16115;SDS011;8162;47.104;15.432;2024-01-10T08:33:58;11.93;;;8.17;;
16115;SDS011;8162;47.104;15.432;2024-01-10T08:36:59;12.87;;;8.07;;
16115;SDS011;8162;47.104;15.432;2024-01-10T08:40:00;13.73;;;8.43;;
16115;SDS011;8162;47.104;15.432;2024-01-10T08:43:06;10.57;;;7.00;;
16115;SDS011;8162;47.104;15.432;2024-01-10T08:46:10;12.20;;;7.60;;
16115;SDS011;8162;47.104;15.432;2024-01-10T08:49:11;12.43;;;7.50;;
16115;SDS011;8162;47.104;15.432;2024-01-10T08:52:11;13.50;;;8.33;;
16115;SDS011;8162;47.104;15.432;2024-01-10T08:55:13;14.00;;;7.80;;
16115;SDS011;8162;47.104;15.432;2024-01-10T08:58:14;12.93;;;7.37;;
16115;SDS011;8162;47.104;15.432;2024-01-10T09:01:15;13.47;;;7.40;;
16115;SDS011;8162;47.104;15.432;2024-01-10T09:04:15;18.17;;;8.73;;
16115;SDS011;8162;47.104;15.432;2024-01-10T09:07:16;15.00;;;9.10;;
16115;SDS011;8162;47.104;15.432;2024-01-10T09:10:18;15.53;;;7.93;;
16115;SDS011;8162;47.104;15.432;2024-01-10T09:13:19;12.77;;;8.07;;
16115;SDS011;8162;47.104;15.432;2024-01-10T09:16:19;11.57;;;7.60;;
16115;SDS011;8162;47.104;15.432;2024-01-10T09:19:20;14.97;;;7.67;;
16115;SDS011;8162;47.104;15.432;2024-01-10T09:22:21;16.47;;;8.43;;
16115;SDS011;8162;47.104;15.432;2024-01-10T09:25:21;14.10;;;8.70;;
16115;SDS011;8162;47.104;15.432;2024-01-10T09:28:22;14.57;;;8.10;;
16115;SDS011;8162;47.104;15.432;2024-01-10T09:31:23;15.30;;;9.23;;
16115;SDS011;8162;47.104;15.432;2024-01-10T09:34:24;11.33;;;8.30;;
16115;SDS011;8162;47.104;15.432;2024-01-10T09:37:24;13.83;;;8.47;;
16115;SDS011;8162;47.104;15.432;2024-01-10T09:40:25;11.13;;;8.17;;
16115;SDS011;8162;47.104;15.432;2024-01-10T09:43:31;13.87;;;8.90;;
16115;SDS011;8162;47.104;15.432;2024-01-10T09:46:35;16.87;;;9.10;;
16115;SDS011;8162;47.104;15.432;2024-01-10T09:49:40;13.97;;;9.40;;
16115;SDS011;8162;47.104;15.432;2024-01-10T09:52:51;14.43;;;9.40;;
16115;SDS011;8162;47.104;15.432;2024-01-10T09:55:53;15.00;;;8.37;;
16115;SDS011;8162;47.104;15.432;2024-01-10T09:58:58;16.47;;;8.63;;
16115;SDS011;8162;47.104;15.432;2024-01-10T10:02:00;12.10;;;7.90;;
16115;SDS011;8162;47.104;15.432;2024-01-10T10:08:19;17.30;;;9.00;;
16115;SDS011;8162;47.104;15.432;2024-01-10T10:11:22;11.63;;;7.60;;
16115;SDS011;8162;47.104;15.432;2024-01-10T10:14:23;14.67;;;8.23;;
16115;SDS011;8162;47.104;15.432;2024-01-10T10:17:26;16.67;;;9.00;;
16115;SDS011;8162;47.104;15.432;2024-01-10T10:20:29;15.57;;;8.50;;
16115;SDS011;8162;47.104;15.432;2024-01-10T10:23:36;13.87;;;8.40;;
16115;SDS011;8162;47.104;15.432;2024-01-10T10:26:37;13.67;;;8.40;;
16115;SDS011;8162;47.104;15.432;2024-01-10T10:29:38;11.57;;;7.63;;
16115;SDS011;8162;47.104;15.432;2024-01-10T10:32:39;12.17;;;7.77;;
16115;SDS011;8162;47.104;15.432;2024-01-10T10:35:40;15.40;;;8.47;;
16115;SDS011;8162;47.104;15.432;2024-01-10T10:38:40;9.37;;;6.53;;
16115;SDS011;8162;47.104;15.432;2024-01-10T10:41:41;13.63;;;7.60;;
16115;SDS011;8162;47.104;15.432;2024-01-10T10:44:43;12.00;;;7.40;;
16115;SDS011;8162;47.104;15.432;2024-01-10T10:47:46;12.43;;;7.37;;
16115;SDS011;8162;47.104;15.432;2024-01-10T10:51:32;12.60;;;7.90;;
16115;SDS011;8162;47.104;15.432;2024-01-10T10:54:17;11.43;;;8.17;;
16115;SDS011;8162;47.104;15.432;2024-01-10T10:57:19;11.90;;;6.90;;
16115;SDS011;8162;47.104;15.432;2024-01-10T11:00:21;10.63;;;6.93;;
16115;SDS011;8162;47.104;15.432;2024-01-10T11:03:27;11.37;;;6.97;;
16115;SDS011;8162;47.104;15.432;2024-01-10T11:06:31;12.27;;;7.13;;
16115;SDS011;8162;47.104;15.432;2024-01-10T11:09:34;11.07;;;7.67;;
16115;SDS011;8162;47.104;15.432;2024-01-10T11:15:47;12.00;;;7.57;;
16115;SDS011;8162;47.104;15.432;2024-01-10T11:19:27;13.97;;;7.83;;
16115;SDS011;8162;47.104;15.432;2024-01-10T11:26:15;10.83;;;6.63;;
16115;SDS011;8162;47.104;15.432;2024-01-10T11:29:16;12.57;;;7.53;;
16115;SDS011;8162;47.104;15.432;2024-01-10T11:32:17;9.43;;;6.87;;
16115;SDS011;8162;47.104;15.432;2024-01-10T11:35:22;10.97;;;7.60;;
16115;SDS011;8162;47.104;15.432;2024-01-10T11:38:27;11.43;;;8.67;;
16115;SDS011;8162;47.104;15.432;2024-01-10T11:44:32;14.23;;;8.60;;
16115;SDS011;8162;47.104;15.432;2024-01-10T11:47:33;16.90;;;9.07;;
16115;SDS011;8162;47.104;15.432;2024-01-10T11:50:34;15.47;;;8.83;;
16115;SDS011;8162;47.104;15.432;2024-01-10T11:53:41;15.33;;;9.23;;
16115;SDS011;8162;47.104;15.432;2024-01-10T11:56:46;16.10;;;9.57;;
16115;SDS011;8162;47.104;15.432;2024-01-10T11:59:47;16.40;;;9.60;;
16115;SDS011;8162;47.104;15.432;2024-01-10T12:02:51;12.70;;;8.47;;
16115;SDS011;8162;47.104;15.432;2024-01-10T12:05:53;12.77;;;8.67;;
16115;SDS011;8162;47.104;15.432;2024-01-10T12:08:55;14.87;;;9.53;;
16115;SDS011;8162;47.104;15.432;2024-01-10T12:11:56;14.03;;;9.10;;
16115;SDS011;8162;47.104;15.432;2024-01-10T12:14:57;13.77;;;8.90;;
16115;SDS011;8162;47.104;15.432;2024-01-10T12:17:58;16.10;;;8.80;;
16115;SDS011;8162;47.104;15.432;2024-01-10T12:20:59;16.23;;;9.70;;
16115;SDS011;8162;47.104;15.432;2024-01-10T12:24:02;12.30;;;8.73;;
16115;SDS011;8162;47.104;15.432;2024-01-10T12:27:05;12.30;;;8.20;;
16115;SDS011;8162;47.104;15.432;2024-01-10T12:30:08;14.80;;;9.60;;
16115;SDS011;8162;47.104;15.432;2024-01-10T12:33:10;14.93;;;8.87;;
16115;SDS011;8162;47.104;15.432;2024-01-10T12:36:11;9.07;;;7.20;;
16115;SDS011;8162;47.104;15.432;2024-01-10T12:39:12;10.60;;;7.87;;
16115;SDS011;8162;47.104;15.432;2024-01-10T12:42:12;11.30;;;7.43;;
16115;SDS011;8162;47.104;15.432;2024-01-10T12:45:20;8.20;;;5.27;;
16115;SDS011;8162;47.104;15.432;2024-01-10T12:48:24;9.07;;;5.80;;
16115;SDS011;8162;47.104;15.432;2024-01-10T12:51:24;8.37;;;5.33;;
16115;SDS011;8162;47.104;15.432;2024-01-10T12:54:25;9.00;;;5.27;;
16115;SDS011;8162;47.104;15.432;2024-01-10T12:57:26;11.00;;;6.13;;
16115;SDS011;8162;47.104;15.432;2024-01-10T13:00:28;6.77;;;5.07;;
16115;SDS011;8162;47.104;15.432;2024-01-10T13:03:30;4.07;;;3.30;;
16115;SDS011;8162;47.104;15.432;2024-01-10T13:06:32;5.67;;;4.10;;
16115;SDS011;8162;47.104;15.432;2024-01-10T13:09:33;5.70;;;4.40;;
16115;SDS011;8162;47.104;15.432;2024-01-10T13:12:33;5.17;;;4.37;;
16115;SDS011;8162;47.104;15.432;2024-01-10T13:15:34;6.47;;;4.23;;
16115;SDS011;8162;47.104;15.432;2024-01-10T13:18:35;5.97;;;3.97;;
16115;SDS011;8162;47.104;15.432;2024-01-10T13:21:36;5.00;;;4.13;;
16115;SDS011;8162;47.104;15.432;2024-01-10T13:24:37;6.93;;;4.77;;
16115;SDS011;8162;47.104;15.432;2024-01-10T13:27:38;7.60;;;5.37;;
16115;SDS011;8162;47.104;15.432;2024-01-10T13:30:41;10.27;;;5.57;;
16115;SDS011;8162;47.104;15.432;2024-01-10T13:33:43;7.10;;;4.83;;
16115;SDS011;8162;47.104;15.432;2024-01-10T13:36:44;6.40;;;4.97;;
16115;SDS011;8162;47.104;15.432;2024-01-10T13:39:45;6.33;;;4.20;;
16115;SDS011;8162;47.104;15.432;2024-01-10T13:42:46;6.33;;;4.50;;
16115;SDS011;8162;47.104;15.432;2024-01-10T13:45:47;4.77;;;3.87;;
16115;SDS011;8162;47.104;15.432;2024-01-10T13:48:48;5.87;;;4.83;;
16115;SDS011;8162;47.104;15.432;2024-01-10T13:51:49;6.30;;;4.73;;
16115;SDS011;8162;47.104;15.432;2024-01-10T13:54:50;9.23;;;6.43;;
16115;SDS011;8162;47.104;15.432;2024-01-10T13:57:52;8.97;;;5.87;;
16115;SDS011;8162;47.104;15.432;2024-01-10T14:00:53;8.33;;;5.90;;
16115;SDS011;8162;47.104;15.432;2024-01-10T14:03:54;9.53;;;6.10;;
16115;SDS011;8162;47.104;15.432;2024-01-10T14:06:55;11.50;;;7.03;;
16115;SDS011;8162;47.104;15.432;2024-01-10T14:09:56;10.47;;;6.43;;
16115;SDS011;8162;47.104;15.432;2024-01-10T14:12:57;14.73;;;7.80;;
16115;SDS011;8162;47.104;15.432;2024-01-10T14:15:58;10.83;;;7.63;;
16115;SDS011;8162;47.104;15.432;2024-01-10T14:18:59;11.00;;;7.07;;
16115;SDS011;8162;47.104;15.432;2024-01-10T14:22:00;9.90;;;6.87;;
16115;SDS011;8162;47.104;15.432;2024-01-10T14:25:02;12.53;;;8.47;;
16115;SDS011;8162;47.104;15.432;2024-01-10T14:28:03;11.50;;;7.63;;
16115;SDS011;8162;47.104;15.432;2024-01-10T14:31:04;15.90;;;7.93;;
16115;SDS011;8162;47.104;15.432;2024-01-10T14:34:05;11.07;;;7.53;;
16115;SDS011;8162;47.104;15.432;2024-01-10T14:37:07;12.77;;;7.50;;
16115;SDS011;8162;47.104;15.432;2024-01-10T14:40:08;11.37;;;8.80;;
16115;SDS011;8162;47.104;15.432;2024-01-10T14:43:09;12.90;;;8.17;;
16115;SDS011;8162;47.104;15.432;2024-01-10T14:46:10;12.23;;;8.83;;
16115;SDS011;8162;47.104;15.432;2024-01-10T14:49:11;11.90;;;8.30;;
16115;SDS011;8162;47.104;15.432;2024-01-10T14:52:11;13.30;;;8.50;;
16115;SDS011;8162;47.104;15.432;2024-01-10T14:55:12;14.90;;;9.17;;
16115;SDS011;8162;47.104;15.432;2024-01-10T14:58:13;13.07;;;8.50;;
16115;SDS011;8162;47.104;15.432;2024-01-10T15:01:14;13.17;;;9.73;;
16115;SDS011;8162;47.104;15.432;2024-01-10T15:04:15;16.83;;;9.57;;
16115;SDS011;8162;47.104;15.432;2024-01-10T15:07:16;12.90;;;8.90;;
16115;SDS011;8162;47.104;15.432;2024-01-10T15:10:17;13.07;;;9.17;;
16115;SDS011;8162;47.104;15.432;2024-01-10T15:13:18;15.47;;;9.47;;
16115;SDS011;8162;47.104;15.432;2024-01-10T15:16:19;14.57;;;10.37;;
16115;SDS011;8162;47.104;15.432;2024-01-10T15:19:20;16.50;;;10.03;;
16115;SDS011;8162;47.104;15.432;2024-01-10T15:22:21;14.43;;;9.60;;
16115;SDS011;8162;47.104;15.432;2024-01-10T15:25:25;13.73;;;9.53;;
16115;SDS011;8162;47.104;15.432;2024-01-10T15:28:26;13.57;;;9.13;;
16115;SDS011;8162;47.104;15.432;2024-01-10T15:31:28;15.10;;;9.40;;
16115;SDS011;8162;47.104;15.432;2024-01-10T15:34:29;16.40;;;10.33;;
16115;SDS011;8162;47.104;15.432;2024-01-10T15:37:30;15.63;;;9.37;;
16115;SDS011;8162;47.104;15.432;2024-01-10T15:40:30;14.77;;;9.27;;
16115;SDS011;8162;47.104;15.432;2024-01-10T15:43:31;14.60;;;8.93;;
16115;SDS011;8162;47.104;15.432;2024-01-10T15:46:32;13.73;;;8.53;;
16115;SDS011;8162;47.104;15.432;2024-01-10T15:49:33;12.87;;;8.57;;
16115;SDS011;8162;47.104;15.432;2024-01-10T15:52:34;15.60;;;9.50;;
16115;SDS011;8162;47.104;15.432;2024-01-10T15:55:35;13.50;;;9.10;;
16115;SDS011;8162;47.104;15.432;2024-01-10T15:58:37;13.97;;;9.50;;
16115;SDS011;8162;47.104;15.432;2024-01-10T16:01:38;14.63;;;9.17;;
16115;SDS011;8162;47.104;15.432;2024-01-10T16:04:39;13.77;;;9.20;;
16115;SDS011;8162;47.104;15.432;2024-01-10T16:07:39;14.20;;;8.67;;
16115;SDS011;8162;47.104;15.432;2024-01-10T16:10:41;15.17;;;9.03;;
16115;SDS011;8162;47.104;15.432;2024-01-10T16:13:42;16.63;;;9.07;;
16115;SDS011;8162;47.104;15.432;2024-01-10T16:16:43;17.13;;;10.23;;
16115;SDS011;8162;47.104;15.432;2024-01-10T16:19:44;16.20;;;10.17;;
16115;SDS011;8162;47.104;15.432;2024-01-10T16:22:45;13.30;;;9.57;;
16115;SDS011;8162;47.104;15.432;2024-01-10T16:25:46;16.67;;;10.97;;
16115;SDS011;8162;47.104;15.432;2024-01-10T16:28:49;16.77;;;11.20;;
16115;SDS011;8162;47.104;15.432;2024-01-10T16:31:50;16.13;;;10.40;;
16115;SDS011;8162;47.104;15.432;2024-01-10T16:34:51;16.43;;;10.53;;
16115;SDS011;8162;47.104;15.432;2024-01-10T16:37:51;17.43;;;10.77;;
16115;SDS011;8162;47.104;15.432;2024-01-10T16:40:52;19.10;;;11.10;;
16115;SDS011;8162;47.104;15.432;2024-01-10T16:43:53;20.67;;;11.27;;
16115;SDS011;8162;47.104;15.432;2024-01-10T16:46:54;16.53;;;10.77;;
16115;SDS011;8162;47.104;15.432;2024-01-10T16:49:54;20.00;;;11.37;;
16115;SDS011;8162;47.104;15.432;2024-01-10T16:52:55;19.97;;;10.80;;
16115;SDS011;8162;47.104;15.432;2024-01-10T16:55:59;17.40;;;10.77;;
16115;SDS011;8162;47.104;15.432;2024-01-10T16:59:00;18.37;;;12.30;;
16115;SDS011;8162;47.104;15.432;2024-01-10T17:02:00;19.17;;;11.73;;
16115;SDS011;8162;47.104;15.432;2024-01-10T17:05:01;18.10;;;11.30;;
16115;SDS011;8162;47.104;15.432;2024-01-10T17:08:03;17.70;;;11.43;;
16115;SDS011;8162;47.104;15.432;2024-01-10T17:11:04;23.70;;;11.13;;
16115;SDS011;8162;47.104;15.432;2024-01-10T17:14:05;23.00;;;12.00;;
16115;SDS011;8162;47.104;15.432;2024-01-10T17:17:06;16.67;;;10.63;;
16115;SDS011;8162;47.104;15.432;2024-01-10T17:20:06;18.37;;;12.03;;
16115;SDS011;8162;47.104;15.432;2024-01-10T17:23:13;20.70;;;11.47;;
16115;SDS011;8162;47.104;15.432;2024-01-10T17:26:14;16.97;;;10.97;;
16115;SDS011;8162;47.104;15.432;2024-01-10T17:29:15;18.10;;;13.20;;
16115;SDS011;8162;47.104;15.432;2024-01-10T17:32:16;18.03;;;11.80;;
16115;SDS011;8162;47.104;15.432;2024-01-10T17:35:17;21.80;;;13.33;;
16115;SDS011;8162;47.104;15.432;2024-01-10T17:38:18;18.80;;;11.57;;
16115;SDS011;8162;47.104;15.432;2024-01-10T17:41:19;21.57;;;13.07;;
16115;SDS011;8162;47.104;15.432;2024-01-10T17:44:20;20.57;;;12.93;;
16115;SDS011;8162;47.104;15.432;2024-01-10T17:47:21;19.97;;;12.00;;
16115;SDS011;8162;47.104;15.432;2024-01-10T17:50:24;19.63;;;12.83;;
16115;SDS011;8162;47.104;15.432;2024-01-10T17:53:25;21.23;;;12.60;;
16115;SDS011;8162;47.104;15.432;2024-01-10T17:56:26;21.50;;;12.63;;
16115;SDS011;8162;47.104;15.432;2024-01-10T17:59:27;22.33;;;13.00;;
16115;SDS011;8162;47.104;15.432;2024-01-10T18:02:29;17.30;;;10.80;;
16115;SDS011;8162;47.104;15.432;2024-01-10T18:05:30;22.00;;;11.60;;
16115;SDS011;8162;47.104;15.432;2024-01-10T18:08:30;20.67;;;13.20;;
16115;SDS011;8162;47.104;15.432;2024-01-10T18:11:31;28.77;;;13.70;;
16115;SDS011;8162;47.104;15.432;2024-01-10T18:14:32;23.80;;;14.13;;